HOURLY OBS INDEX

031

North Coast - Barron

CAIRNS AERO

Site: 031011
Alt: 2.2m
5km NNW of CAIRNS


  Time     Wind        Temp  DP   Baro     Rain since   Rain past  Vis(m), Cloud(base in m), Weather
  local        km/h                         9am  last   hr   10m    
Thu 09:00    S 17/ 24  21.5 11.5  1020.7    0.0   0.0   0.0   0.0  *10000|FE1350sc 
Thu 09:30    S 19/ 28  21.8 11.5  1020.8    0.0   0.0   0.0   0.0  *10000|SC1350sc 
Thu 10:00    S 19/ 30  22.0 12.3  1020.5    0.0   0.0   0.0   0.0  *10000|SC1350sc 
Thu 10:30    S 17/ 28  22.8 12.7  1020.5    0.0   0.0   0.0   0.0  *10000|SC1350sc 
Thu 11:00  SSE 22/ 32  23.4 12.7  1020.3    0.0   0.0   0.0   0.0  *10000|SC1350sc 
Thu 11:30   SE 28/ 39  24.2 12.2  1020.0    0.0   0.0   0.0   0.0  *10000|SC1350sc 
Thu 12:00   SE 30/ 37  24.3 12.3  1019.6    0.0   0.0   0.0   0.0  *10000|FE1350sc 
Thu 12:30   SE 32/ 41  24.9 12.8  1019.0    0.0   0.0   0.0   0.0  *10000|FE1350sc 
Thu 13:00   SE 33/ 41  24.5 12.5  1018.6    0.0   0.0   0.0   0.0  *10000|FE1350cu 
Thu 13:30   SE 32/ 39  24.6 11.9  1018.2    0.0   0.0   0.0   0.0  *10000|FE1350cu 
Thu 14:00  ESE 28/ 33  25.0 11.9  1017.8    0.0   0.0   0.0   0.0  *10000|FE1350cu 

CAIRNS RACECOURSE

Site: 031222
Alt: 4.1m
km of


  Time     Wind        Temp  DP   Baro     Rain since   Rain past  Vis(m), Cloud(base in m), Weather
  local        km/h                         9am  last   hr   10m    
Thu 09:00   SE  7/  9  17.7 12.4  ------    0.0   0.0   0.0   0.0   ----- 
Thu 09:30  SSE  9/ 13  19.1 12.8  ------    0.0   0.0   0.0   0.0   ----- 
Thu 10:00    S 11/ 17  21.4 13.6  ------    0.0   0.0   0.0   0.0   ----- 
Thu 10:30    S 17/ 24  23.2 13.1  ------    0.0   0.0   0.0   0.0   ----- 
Thu 11:00  SSE 17/ 24  23.6 12.9  ------    0.0   0.0   0.0   0.0   ----- 
Thu 11:30   SE 17/ 26  24.0 12.6  ------    0.0   0.0   0.0   0.0   ----- 
Thu 12:00    E 19/ 22  25.2 13.1  ------    0.0   0.0   0.0   0.0   ----- 
Thu 12:30  ESE 19/ 26  24.2 11.9  ------    0.0   0.0   0.0   0.0   ----- 
Thu 13:00  SSE 19/ 30  23.8 12.4  ------    0.0   0.0   0.0   0.0   ----- 
Thu 13:30   SE 15/ 24  24.3 12.3  ------    0.0   0.0   0.0   0.0   ----- 
Thu 14:00   SE 17/ 26  25.0 12.9  ------    0.0   0.0   0.0   0.0   ----- 

CAPE FLATTERY

Site: 031213
Alt: 18.5m
58km N of COOKTOWN


  Time     Wind        Temp  DP   Baro     Rain since   Rain past  Vis(m), Cloud(base in m), Weather
  local        km/h                         9am  last   hr   10m    
Thu 09:00   SE 33/ 45  24.3 16.3  1018.8    0.0   0.0   0.0   0.0   ----- 
Thu 09:30   SE 32/ 46  24.7 16.2  1018.7    0.0   0.0   0.0   0.0   ----- 
Thu 10:00   SE 35/ 46  25.0 16.2  1018.7    0.0   0.0   0.0   0.0   ----- 
Thu 10:30   SE 35/ 48  25.2 15.8  1018.6    0.0   0.0   0.0   0.0   ----- 
Thu 11:00   SE 33/ 46  25.8 15.8  1018.6    0.0   0.0   0.0   0.0   ----- 
Thu 11:30   SE 35/ 48  25.8 15.8  1018.4    0.0   0.0   0.0   0.0   ----- 
Thu 12:00   SE 33/ 48  26.2 15.6  1018.0    0.0   0.0   0.0   0.0   ----- 
Thu 12:30   SE 35/ 45  25.9 16.2  1017.7    0.0   0.0   0.0   0.0   ----- 
Thu 13:00  SSE 35/ 45  26.2 17.0  1017.3    0.0   0.0   0.0   0.0   ----- 
Thu 13:30  SSE 37/ 46  24.7 17.2  1016.9    0.0   0.0   0.0   0.0   ----- 
Thu 14:00  SSE 35/ 48  25.9 16.5  1016.8    0.0   0.0   0.0   0.0   ----- 

COOKTOWN AIRPORT

Site: 031209
Alt: 4.8m
8km WNW of COOKTOWN


  Time     Wind        Temp  DP   Baro     Rain since   Rain past  Vis(m), Cloud(base in m), Weather
  local        km/h                         9am  last   hr   10m    
Thu 09:00   SE 20/ 30  22.4 14.8  1019.1    0.0   0.0   0.0   0.0   10000 
Thu 09:30   SE 24/ 35  22.8 14.7  1018.9    0.0   0.0   0.0   0.0   10000 
Thu 10:00   SE 26/ 41  23.2 14.5  1018.8    0.0   0.0   0.0   0.0   10000 
Thu 10:30   SE 22/ 39  23.7 14.6  1018.8    0.0   0.0   0.0   0.0   10000 
Thu 11:00   SE 24/ 37  24.1 14.9  1018.8    0.0   0.0   0.0   0.0   10000|SC 990 
Thu 11:30   SE 26/ 45  24.5 15.1  1018.6    0.0   0.0   0.0   0.0   10000|SC 930 
Thu 12:00   SE 26/ 43  24.2 14.6  1018.3    0.0   0.0   0.0   0.0   10000|SC 990 
Thu 12:30   SE 22/ 39  24.5 14.3  1018.1    0.0   0.0   0.0   0.0   10000|SC 990 
Thu 13:00   SE 30/ 41  24.2 14.6  1017.7    0.0   0.0   0.0   0.0   10000|SC 990 
Thu 13:30   SE 26/ 37  24.3 14.5  1017.2    0.0   0.0   0.0   0.0   10000 
Thu 14:00   SE 22/ 39  25.4 15.1  1017.0    0.0   0.0   0.0   0.0   10000|SC 990 

LOW ISLES LIGHTHOUSE

Site: 031037
Alt: 2.9m
63km NNW of CAIRNS


  Time     Wind        Temp  DP   Baro     Rain since   Rain past  Vis(m), Cloud(base in m), Weather
  local        km/h                         9am  last   hr   10m    
Thu 09:00  SSE 30/ 35  21.3 15.2  1020.5    0.0   0.0   0.0   0.0   ----- 
Thu 09:30  SSE 30/ 33  21.5 14.2  1020.3    0.0   0.0   0.0   0.0   ----- 
Thu 10:00  SSE 30/ 35  21.9 15.5  1020.4    0.0   0.0   0.0   0.0   ----- 
Thu 10:30  SSE 30/ 35  22.3 14.7  1020.2    0.0   0.0   0.0   0.0   ----- 
Thu 11:00  SSE 32/ 35  22.6 14.7  1020.1    0.0   0.0   0.0   0.0   ----- 
Thu 11:30   SE 33/ 41  22.7 15.0  1019.8    0.0   0.0   0.0   0.0   ----- 
Thu 12:00  SSE 32/ 39  23.1 15.7  1019.4    0.0   0.0   0.0   0.0   ----- 
Thu 12:30   SE 30/ 35  23.7 16.2  1019.1    0.0   0.0   0.0   0.0   ----- 
Thu 13:00   SE 32/ 35  23.2 15.0  1018.6    0.0   0.0   0.0   0.0   ----- 
Thu 13:30   SE 32/ 39  24.4 15.6  1018.2    0.0   0.0   0.0   0.0   ----- 
Thu 14:00   SE 32/ 37  24.7 15.6  1018.1    0.0   0.0   0.0   0.0   ----- 

MAREEBA AIRPORT

Site: 031210
Alt: 471.9m
40km WSW of CAIRNS


  Time     Wind        Temp  DP   Baro     Rain since   Rain past  Vis(m), Cloud(base in m), Weather
  local        km/h                         9am  last   hr   10m    
Thu 09:00   SE 17/ 24  16.7 10.1  1021.8    0.0   0.0   0.0   0.0   ----- 
Thu 09:30   SE 17/ 28  17.6  9.5  1021.6    0.0   0.0   0.0   0.0   ----- 
Thu 10:00  SSE 19/ 26  19.2 10.2  1021.5    0.0   0.0   0.0   0.0   ----- 
Thu 10:30  ESE 11/ 20  19.7  9.3  1021.3    0.0   0.0   0.0   0.0   ----- 
Thu 11:00  ESE 13/ 24  20.8  9.7  1021.1    0.0   0.0   0.0   0.0   ----- 
Thu 11:30  SSE 19/ 24  21.9 10.7  1020.8    0.0   0.0   0.0   0.0   ----- 
Thu 12:00  SSE 11/ 20  21.8 10.0  1020.6    0.0   0.0   0.0   0.0   ----- 
Thu 12:30   SE 13/ 20  22.0  9.5  1019.9    0.0   0.0   0.0   0.0   ----- 
Thu 13:00  SSE 19/ 28  21.7  9.3  1019.3    0.0   0.0   0.0   0.0   ----- 
Thu 13:30   SE 15/ 24  22.1  9.3  1018.9    0.0   0.0   0.0   0.0   ----- 
Thu 14:00  SSE 19/ 26  22.2  9.7  1018.6    0.0   0.0   0.0   0.0   -----